Time;durP1;ratioP1;P1;durP2;ratioP2;P2;SDS_P1;SDS_P2;PMS_P1;PMS_P2;Temp;Humidity;BMP_temperature;BMP_pressure;BME280_temperature;BME280_humidity;BME280_pressure;Samples;Min_cycle;Max_cycle;Signal;HPM_P1;HPM_P2
2022/11/06 00:01:29;;;;;;;74.50;52.17;;;18.20;69.50;;;;;;4942430;28;90286;-54
2022/11/06 00:03:56;;;;;;;73.20;52.05;;;18.20;69.40;;;;;;4943979;28;89711;-52
2022/11/06 00:09:10;;;;;;;73.22;51.85;;;18.10;69.40;;;;;;4948303;28;89542;-59
2022/11/06 00:11:37;;;;;;;72.38;51.75;;;18.10;69.30;;;;;;4942745;28;91048;-54
2022/11/06 00:14:03;;;;;;;74.38;51.78;;;18.10;69.40;;;;;;4943846;28;91716;-55
2022/11/06 00:16:29;;;;;;;73.13;51.90;;;18.10;69.60;;;;;;4946618;28;90168;-55
2022/11/06 00:18:55;;;;;;;73.60;51.80;;;18.10;69.70;;;;;;4955578;28;91356;-52
2022/11/06 00:21:23;;;;;;;73.90;51.83;;;18.10;69.60;;;;;;4950434;28;91155;-55
2022/11/06 00:23:50;;;;;;;74.72;51.90;;;18.10;69.50;;;;;;4951605;28;93233;-54
2022/11/06 00:26:21;;;;;;;73.30;51.95;;;18.10;69.50;;;;;;4955669;28;89559;-55
2022/11/06 00:28:48;;;;;;;72.90;52.10;;;18.10;69.60;;;;;;4953100;28;91252;-55
2022/11/06 00:31:16;;;;;;;72.07;51.50;;;18.10;69.60;;;;;;4941691;28;90546;-54
2022/11/06 00:33:42;;;;;;;72.95;51.45;;;18.00;69.60;;;;;;4945605;28;90588;-54
2022/11/06 00:36:12;;;;;;;72.53;51.85;;;18.10;69.70;;;;;;4955835;28;89638;-55
2022/11/06 00:38:38;;;;;;;71.60;51.53;;;18.00;69.60;;;;;;4949156;28;89018;-55
2022/11/06 00:41:08;;;;;;;72.45;51.75;;;18.00;69.80;;;;;;4944393;28;90690;-54
2022/11/06 00:43:34;;;;;;;72.25;51.83;;;18.00;69.80;;;;;;4949204;28;90552;-54
2022/11/06 00:46:08;;;;;;;73.85;52.15;;;18.00;69.80;;;;;;4951114;28;92354;-54
2022/11/06 00:48:35;;;;;;;73.38;51.63;;;18.00;69.70;;;;;;4948016;28;90101;-54
2022/11/06 00:51:06;;;;;;;72.78;51.70;;;18.00;69.70;;;;;;4952751;28;92037;-52
2022/11/06 00:53:32;;;;;;;72.57;51.75;;;18.00;69.60;;;;;;4948802;28;90286;-54
2022/11/06 00:56:09;;;;;;;72.32;51.60;;;18.00;69.70;;;;;;4944587;28;90604;-54
2022/11/06 00:58:36;;;;;;;74.75;51.88;;;18.00;69.70;;;;;;4952423;28;89880;-52
2022/11/06 01:01:17;;;;;;;72.57;51.55;;;18.00;69.80;;;;;;4943700;28;96432;-55
2022/11/06 01:03:45;;;;;;;71.68;51.70;;;18.00;69.80;;;;;;4941852;28;90015;-55
2022/11/06 01:06:18;;;;;;;72.30;51.13;;;18.00;69.50;;;;;;4947443;28;91501;-54
2022/11/06 01:08:45;;;;;;;72.75;51.65;;;17.90;69.50;;;;;;4947716;28;96998;-55
2022/11/06 01:11:18;;;;;;;71.28;51.42;;;17.90;69.70;;;;;;4947801;28;91330;-55
2022/11/06 01:13:44;;;;;;;72.32;51.55;;;17.90;69.80;;;;;;4948347;28;90909;-55
2022/11/06 01:16:13;;;;;;;72.72;51.47;;;17.90;69.80;;;;;;4948958;28;89950;-57
2022/11/06 01:18:40;;;;;;;72.70;51.65;;;17.90;69.70;;;;;;4942016;28;89905;-55
2022/11/06 01:21:12;;;;;;;72.28;51.47;;;17.90;69.90;;;;;;4952078;28;90691;-55
2022/11/06 01:23:38;;;;;;;72.40;51.60;;;17.90;69.90;;;;;;4954300;28;90767;-54
2022/11/06 01:26:06;;;;;;;74.13;51.78;;;17.90;69.80;;;;;;4942362;28;89943;-55
2022/11/06 01:28:32;;;;;;;72.38;51.53;;;17.90;69.70;;;;;;4953180;28;89438;-55
2022/11/06 01:31:03;;;;;;;72.07;51.38;;;17.90;69.80;;;;;;4951398;28;91349;-57
2022/11/06 01:33:29;;;;;;;72.40;51.23;;;17.80;69.80;;;;;;4952145;28;89964;-55
2022/11/06 01:35:54;;;;;;;72.05;51.22;;;17.80;69.80;;;;;;4947285;28;91521;-56
2022/11/06 01:38:20;;;;;;;72.07;51.80;;;17.80;69.90;;;;;;4947684;28;89918;-55
2022/11/06 01:40:47;;;;;;;72.60;51.30;;;17.90;69.80;;;;;;4946834;28;90449;-55
2022/11/06 01:43:19;;;;;;;72.68;51.83;;;17.80;69.70;;;;;;4946781;28;93430;-54
2022/11/06 01:45:48;;;;;;;71.30;51.42;;;17.80;69.80;;;;;;4945756;28;91022;-54
2022/11/06 01:48:15;;;;;;;71.53;51.25;;;17.80;69.70;;;;;;4948262;28;89957;-54
2022/11/06 01:50:43;;;;;;;72.68;50.88;;;17.80;69.60;;;;;;4960626;28;89935;-54
2022/11/06 01:53:09;;;;;;;73.70;51.63;;;17.80;69.80;;;;;;4956173;28;90014;-58
2022/11/06 01:55:41;;;;;;;71.57;51.25;;;17.80;69.90;;;;;;4949527;28;90019;-54
2022/11/06 01:58:09;;;;;;;72.53;51.40;;;17.80;69.90;;;;;;4951747;28;90235;-53
2022/11/06 02:00:35;;;;;;;72.38;51.65;;;17.80;69.80;;;;;;4945826;28;91234;-55
2022/11/06 02:03:01;;;;;;;72.40;51.33;;;17.80;69.80;;;;;;4951190;28;90775;-53
2022/11/06 02:05:27;;;;;;;72.57;51.35;;;17.80;69.70;;;;;;4945493;28;90008;-55
2022/11/06 02:07:54;;;;;;;71.88;51.38;;;17.80;69.80;;;;;;4953924;28;92896;-56
2022/11/06 02:10:21;;;;;;;72.40;50.80;;;17.80;69.80;;;;;;4946323;28;91295;-54
2022/11/06 02:13:00;;;;;;;71.60;51.22;;;17.70;69.80;;;;;;4946082;28;90651;-57
2022/11/06 02:15:57;;;;;;;73.78;51.03;;;17.80;69.80;;;;;;4953336;28;90075;-54
2022/11/06 02:18:41;;;;;;;72.35;51.35;;;17.70;69.80;;;;;;4954016;28;89405;-54
2022/11/06 02:21:10;;;;;;;71.30;51.03;;;17.70;69.90;;;;;;4950595;28;90643;-54
2022/11/06 02:23:42;;;;;;;71.82;51.42;;;17.70;69.80;;;;;;4956672;28;90022;-55
2022/11/06 02:26:19;;;;;;;72.90;51.17;;;17.70;69.80;;;;;;4949341;28;91038;-51
2022/11/06 02:28:55;;;;;;;71.72;50.95;;;17.70;69.80;;;;;;4960577;28;89976;-54
2022/11/06 02:31:26;;;;;;;70.90;51.00;;;17.70;69.80;;;;;;4947651;28;91161;-54
2022/11/06 02:33:54;;;;;;;;;;;17.70;69.60;;;;;;4946382;28;90356;-56
2022/11/06 02:36:26;;;;;;;71.85;51.10;;;17.70;70.00;;;;;;4950768;28;92564;-55
2022/11/06 02:38:57;;;;;;;71.72;51.17;;;17.70;69.90;;;;;;4966435;28;89880;-53
2022/11/06 02:41:28;;;;;;;71.35;51.45;;;17.70;70.00;;;;;;4942362;28;90731;-54
2022/11/06 02:43:56;;;;;;;71.55;51.45;;;17.70;69.90;;;;;;4951328;28;90100;-53
2022/11/06 02:46:32;;;;;;;71.68;51.00;;;17.70;69.90;;;;;;4956585;28;91392;-55
2022/11/06 02:49:28;;;;;;;70.53;50.92;;;17.70;69.90;;;;;;4943779;28;90494;-53
2022/11/06 02:51:58;;;;;;;72.47;51.35;;;17.60;69.90;;;;;;4950419;28;91664;-55
2022/11/06 02:54:27;;;;;;;72.88;51.17;;;17.60;69.80;;;;;;4951848;28;90774;-57
2022/11/06 02:56:59;;;;;;;72.50;51.20;;;17.60;69.90;;;;;;4950181;28;92680;-55
2022/11/06 02:59:33;;;;;;;72.45;52.08;;;17.60;69.80;;;;;;4947668;28;90364;-55
2022/11/06 03:02:06;;;;;;;72.55;51.65;;;17.60;69.90;;;;;;4943087;28;91785;-54
2022/11/06 03:05:24;;;;;;;71.03;51.28;;;17.60;69.90;;;;;;4953449;28;91336;-55
2022/11/06 03:08:01;;;;;;;70.35;50.75;;;17.60;70.00;;;;;;4940562;28;89761;-55
2022/11/06 03:10:32;;;;;;;71.03;51.00;;;17.60;69.90;;;;;;4943058;28;89837;-54
2022/11/06 03:13:00;;;;;;;;;;;17.60;69.90;;;;;;4941405;28;90132;-53
2022/11/06 03:16:04;;;;;;;70.35;51.20;;;17.50;69.90;;;;;;4947793;28;89903;-53
2022/11/06 03:19:00;;;;;;;70.28;50.92;;;17.50;70.00;;;;;;4940651;28;90705;-52
2022/11/06 03:21:57;;;;;;;71.50;51.50;;;17.50;70.00;;;;;;4942869;28;91490;-54
2022/11/06 03:24:54;;;;;;;73.43;51.38;;;17.50;70.10;;;;;;4949799;28;91541;-54
2022/11/06 03:27:33;;;;;;;72.47;50.75;;;17.50;70.10;;;;;;4934980;28;92193;-54
2022/11/06 03:30:06;;;;;;;73.13;51.30;;;17.50;70.10;;;;;;4944106;28;90266;-53
2022/11/06 03:32:40;;;;;;;70.82;51.28;;;17.50;70.00;;;;;;4945897;28;91667;-53
2022/11/06 03:35:10;;;;;;;70.95;51.17;;;17.50;70.10;;;;;;4942455;28;90284;-53
2022/11/06 03:37:43;;;;;;;70.05;50.70;;;17.50;70.10;;;;;;4940068;28;90422;-53
2022/11/06 03:40:14;;;;;;;71.38;50.92;;;17.50;70.10;;;;;;4952774;28;92263;-52
2022/11/06 03:42:42;;;;;;;70.47;51.10;;;17.40;70.00;;;;;;4941392;28;93558;-53
2022/11/06 03:45:19;;;;;;;70.93;51.08;;;17.40;70.00;;;;;;4949558;28;92067;-54
2022/11/06 03:47:49;;;;;;;70.38;50.83;;;17.40;70.10;;;;;;4943376;28;92234;-54
2022/11/06 03:50:30;;;;;;;70.20;51.10;;;17.40;70.10;;;;;;4944617;28;90020;-55
2022/11/06 03:53:14;;;;;;;70.07;51.03;;;17.40;70.10;;;;;;4942493;28;90687;-51
2022/11/06 03:55:48;;;;;;;71.65;51.40;;;17.40;70.10;;;;;;4946952;28;90194;-55
2022/11/06 03:58:19;;;;;;;71.47;51.30;;;17.40;70.00;;;;;;4938322;28;89969;-53
2022/11/06 04:00:46;;;;;;;71.78;50.67;;;17.40;70.00;;;;;;4950301;28;91049;-53
2022/11/06 04:03:31;;;;;;;71.13;51.30;;;17.40;70.00;;;;;;4957381;28;89735;-54
2022/11/06 04:06:04;;;;;;;70.18;50.75;;;17.40;70.10;;;;;;4955103;28;90189;-54
2022/11/06 04:14:04;;;;;;;70.30;50.85;;;17.40;70.20;;;;;;4947793;28;90190;-54
2022/11/06 04:16:35;;;;;;;71.30;51.17;;;17.40;70.10;;;;;;4952937;28;92121;-53
2022/11/06 04:19:01;;;;;;;71.45;51.08;;;17.40;70.10;;;;;;4945251;28;90549;-54
2022/11/06 04:21:47;;;;;;;71.70;50.55;;;17.40;70.10;;;;;;4955206;28;91559;-55
2022/11/06 04:27:34;;;;;;;70.03;51.03;;;17.40;70.00;;;;;;4948096;28;90097;-53
2022/11/06 04:30:10;;;;;;;69.72;50.95;;;17.30;70.00;;;;;;4946911;28;94257;-55
2022/11/06 04:33:04;;;;;;;71.53;51.00;;;17.30;70.00;;;;;;4941372;28;91212;-57
2022/11/06 04:35:55;;;;;;;70.75;50.60;;;17.30;70.00;;;;;;4943498;28;90634;-52
2022/11/06 04:38:30;;;;;;;71.57;50.92;;;17.30;70.00;;;;;;4948862;28;90934;-52
2022/11/06 04:41:11;;;;;;;72.10;50.92;;;17.40;70.00;;;;;;4956317;28;91039;-50
2022/11/06 04:43:52;;;;;;;69.95;50.85;;;17.30;69.90;;;;;;4950413;28;90232;-55
2022/11/06 04:46:35;;;;;;;70.32;50.80;;;17.30;69.90;;;;;;4948367;28;90198;-54
2022/11/06 04:49:03;;;;;;;70.97;50.95;;;17.30;70.00;;;;;;4944303;28;94558;-53
2022/11/06 04:51:33;;;;;;;70.32;51.15;;;17.30;69.90;;;;;;4951797;28;90050;-55
2022/11/06 04:53:59;;;;;;;69.93;50.53;;;17.30;70.00;;;;;;4950060;28;90133;-53
2022/11/06 04:56:29;;;;;;;69.65;50.42;;;17.30;70.10;;;;;;4948908;28;89818;-54
2022/11/06 04:58:54;;;;;;;70.10;51.10;;;17.30;70.00;;;;;;4957606;28;90060;-53
2022/11/06 05:01:20;;;;;;;70.88;50.95;;;17.30;70.10;;;;;;4951198;28;90208;-51
2022/11/06 05:03:46;;;;;;;71.60;50.83;;;17.30;70.00;;;;;;4948897;28;92690;-55
2022/11/06 05:06:12;;;;;;;70.95;50.72;;;17.30;70.70;;;;;;4954167;28;91295;-55
2022/11/06 05:08:38;;;;;;;70.93;50.95;;;17.30;70.00;;;;;;4952633;28;90170;-54
2022/11/06 05:11:04;;;;;;;70.55;50.88;;;17.30;70.00;;;;;;4954204;28;92068;-54
2022/11/06 05:13:29;;;;;;;70.28;51.00;;;17.30;70.00;;;;;;4947349;28;89791;-55
2022/11/06 05:15:56;;;;;;;70.72;51.38;;;17.30;69.90;;;;;;4952106;28;90173;-54
2022/11/06 05:18:22;;;;;;;70.57;50.47;;;17.20;70.00;;;;;;4944980;28;92224;-49
2022/11/06 05:22:56;;;;;;;70.47;50.60;;;17.30;70.00;;;;;;4950726;28;90099;-52
2022/11/06 05:23:37;;;;;;;70.22;50.75;;;17.20;70.10;;;;;;4952120;28;91710;-52
2022/11/06 05:26:03;;;;;;;71.03;50.92;;;17.30;70.00;;;;;;4957167;28;90116;-53
2022/11/06 05:28:29;;;;;;;69.97;50.65;;;17.20;70.00;;;;;;4946266;28;93327;-52
2022/11/06 05:30:54;;;;;;;71.22;50.80;;;17.20;70.10;;;;;;4955499;28;90134;-54
2022/11/06 05:33:20;;;;;;;72.18;51.08;;;17.20;70.10;;;;;;4951234;28;91320;-55
2022/11/06 05:35:46;;;;;;;70.55;50.72;;;17.20;70.10;;;;;;4962173;28;92875;-55
2022/11/06 05:38:11;;;;;;;71.03;50.75;;;17.20;70.10;;;;;;4951320;28;90147;-52
2022/11/06 05:40:37;;;;;;;71.53;50.65;;;17.20;70.10;;;;;;4953790;28;90211;-54
2022/11/06 05:43:02;;;;;;;70.88;50.63;;;17.20;70.10;;;;;;4944217;28;89728;-55
2022/11/06 05:45:28;;;;;;;69.25;50.50;;;17.20;70.20;;;;;;4954329;28;88924;-49
2022/11/06 05:47:54;;;;;;;69.72;50.55;;;17.20;70.20;;;;;;4955090;28;90529;-54
2022/11/06 05:50:20;;;;;;;70.07;50.63;;;17.20;70.20;;;;;;4946874;28;92067;-55
2022/11/06 05:52:45;;;;;;;69.60;50.50;;;17.20;70.20;;;;;;4948184;28;91159;-55
2022/11/06 05:55:11;;;;;;;70.18;50.83;;;17.20;70.10;;;;;;4956772;28;89614;-54
2022/11/06 05:57:37;;;;;;;70.38;50.50;;;17.20;70.10;;;;;;4949629;28;90005;-55
2022/11/06 06:00:04;;;;;;;70.78;51.05;;;17.10;70.20;;;;;;4949597;28;90033;-54
2022/11/06 06:02:30;;;;;;;69.82;50.65;;;17.10;70.10;;;;;;4949730;28;90191;-54
2022/11/06 06:04:55;;;;;;;69.95;50.78;;;17.10;70.20;;;;;;4948579;28;89933;-55
2022/11/06 06:07:21;;;;;;;69.72;50.17;;;17.20;70.20;;;;;;4952857;28;91018;-55
2022/11/06 06:09:47;;;;;;;69.47;50.58;;;17.20;70.10;;;;;;4945008;28;89268;-54
2022/11/06 06:12:13;;;;;;;70.55;50.70;;;17.10;70.10;;;;;;4947735;28;90086;-55
2022/11/06 06:14:39;;;;;;;69.60;50.88;;;17.20;70.10;;;;;;4944884;28;90339;-55
2022/11/06 06:17:04;;;;;;;70.57;50.92;;;17.20;70.30;;;;;;4955615;28;91098;-55
2022/11/06 06:19:30;;;;;;;69.18;50.30;;;17.10;70.10;;;;;;4948706;28;95778;-55
2022/11/06 06:21:55;;;;;;;70.05;51.15;;;17.10;70.00;;;;;;4953583;28;90121;-54
2022/11/06 06:24:21;;;;;;;70.78;50.40;;;17.10;70.10;;;;;;4953293;28;91662;-55
2022/11/06 06:26:47;;;;;;;70.75;50.50;;;17.10;70.00;;;;;;4952481;28;89927;-55
2022/11/06 06:29:13;;;;;;;71.97;51.13;;;17.10;70.10;;;;;;4957111;28;89969;-58
2022/11/06 06:31:38;;;;;;;69.45;50.42;;;17.10;70.20;;;;;;4950436;28;89513;-55
2022/11/06 06:34:04;;;;;;;70.13;50.72;;;17.10;70.90;;;;;;4950761;28;89899;-55
2022/11/06 06:36:29;;;;;;;70.82;50.45;;;17.10;70.10;;;;;;4951494;28;90695;-51
2022/11/06 06:38:55;;;;;;;71.15;51.05;;;17.20;70.10;;;;;;4949672;28;90301;-52
2022/11/06 06:41:21;;;;;;;70.50;50.58;;;17.20;70.10;;;;;;4951482;28;90780;-53
2022/11/06 06:43:48;;;;;;;70.43;50.85;;;17.10;70.00;;;;;;4950196;28;89906;-53
2022/11/06 06:46:14;;;;;;;69.80;50.47;;;17.10;70.00;;;;;;4951499;28;90280;-51
2022/11/06 06:48:39;;;;;;;70.20;50.75;;;17.10;70.00;;;;;;4952357;28;91417;-53
2022/11/06 06:51:06;;;;;;;70.88;50.78;;;17.10;69.90;;;;;;4948088;28;91246;-54
2022/11/06 06:53:33;;;;;;;69.97;50.67;;;17.10;69.90;;;;;;4956477;28;90032;-54
2022/11/06 06:56:00;;;;;;;69.95;50.78;;;17.20;70.00;;;;;;4947206;28;95413;-54
2022/11/06 06:58:29;;;;;;;70.55;51.00;;;17.10;69.80;;;;;;4949048;28;89588;-55
2022/11/06 07:00:59;;;;;;;69.55;50.55;;;17.10;69.90;;;;;;4948501;28;89994;-53
2022/11/06 07:03:25;;;;;;;70.45;50.55;;;17.10;69.90;;;;;;4954992;28;89859;-54
2022/11/06 07:05:51;;;;;;;71.13;50.45;;;17.10;69.90;;;;;;4946235;28;91364;-55
2022/11/06 07:08:16;;;;;;;72.93;50.80;;;17.10;69.80;;;;;;4958178;28;92333;-55
2022/11/06 07:10:42;;;;;;;70.28;50.53;;;17.10;69.90;;;;;;4947402;28;90185;-54
2022/11/06 07:13:07;;;;;;;70.13;50.42;;;17.10;69.90;;;;;;4948157;28;90067;-55
2022/11/06 07:15:33;;;;;;;71.88;51.17;;;17.10;69.90;;;;;;4953787;28;90400;-54
2022/11/06 07:18:06;;;;;;;70.93;50.83;;;17.10;69.80;;;;;;4949699;28;89897;-54
2022/11/06 07:20:32;;;;;;;71.07;50.67;;;17.20;70.50;;;;;;4949149;28;92230;-55
2022/11/06 07:22:58;;;;;;;70.57;50.67;;;17.20;69.80;;;;;;4946624;28;89862;-54
2022/11/06 07:25:27;;;;;;;70.68;50.90;;;17.10;69.70;;;;;;4947630;28;89593;-54
2022/11/06 07:27:52;;;;;;;69.43;50.42;;;17.10;69.80;;;;;;4955339;28;92548;-49
2022/11/06 07:30:18;;;;;;;70.63;50.83;;;17.10;69.90;;;;;;4945218;28;92916;-54
2022/11/06 07:32:44;;;;;;;70.30;50.55;;;17.20;70.00;;;;;;4946813;28;92126;-53
2022/11/06 07:35:09;;;;;;;73.38;51.00;;;17.20;69.90;;;;;;4951599;28;90072;-55
2022/11/06 07:37:35;;;;;;;70.72;51.13;;;17.10;69.90;;;;;;4952509;28;90863;-54
2022/11/06 07:40:01;;;;;;;71.38;51.05;;;17.10;69.80;;;;;;4954571;28;89750;-53
2022/11/06 07:42:27;;;;;;;70.93;50.92;;;17.10;69.90;;;;;;4952839;28;89913;-54
2022/11/06 07:44:54;;;;;;;70.60;50.72;;;17.10;69.90;;;;;;4953538;28;91057;-53
2022/11/06 07:47:21;;;;;;;70.30;50.63;;;17.10;69.90;;;;;;4953938;28;89044;-54
2022/11/06 07:49:46;;;;;;;70.70;50.67;;;17.10;69.90;;;;;;4944555;28;90104;-52
2022/11/06 07:52:12;;;;;;;71.32;50.55;;;17.20;69.90;;;;;;4943344;28;89962;-54
2022/11/06 07:54:37;;;;;;;70.80;50.90;;;17.10;69.80;;;;;;4945857;28;91419;-53
2022/11/06 07:57:03;;;;;;;71.10;50.83;;;17.10;69.90;;;;;;4949360;28;94308;-53
2022/11/06 07:59:29;;;;;;;70.40;50.60;;;17.10;69.90;;;;;;4952836;28;93371;-53
2022/11/06 08:01:54;;;;;;;69.95;50.90;;;17.10;69.90;;;;;;4941199;28;90223;-53
2022/11/06 08:04:20;;;;;;;72.40;50.55;;;17.10;69.90;;;;;;4949576;28;91530;-54
2022/11/06 08:06:46;;;;;;;69.57;50.58;;;17.10;70.00;;;;;;4957328;28;89852;-55
2022/11/06 08:09:11;;;;;;;72.68;51.05;;;17.10;69.90;;;;;;4951853;28;89756;-54
2022/11/06 08:11:37;;;;;;;72.60;50.80;;;17.10;69.90;;;;;;4948211;28;89114;-53
2022/11/06 08:14:03;;;;;;;70.35;50.80;;;17.10;69.90;;;;;;4948657;28;89865;-54
2022/11/06 08:16:28;;;;;;;69.57;50.60;;;17.10;69.80;;;;;;4947728;28;92781;-53
2022/11/06 08:18:54;;;;;;;71.20;50.85;;;17.10;69.80;;;;;;4945913;28;92417;-53
2022/11/06 08:21:20;;;;;;;70.95;50.88;;;17.10;69.80;;;;;;4946259;28;92411;-50
2022/11/06 08:23:46;;;;;;;71.20;50.75;;;17.10;69.70;;;;;;4952752;28;93353;-54
2022/11/06 08:26:11;;;;;;;72.32;50.53;;;17.10;69.90;;;;;;4955913;28;90009;-53
2022/11/06 08:28:37;;;;;;;70.63;50.60;;;17.10;69.80;;;;;;4950459;28;90740;-53
2022/11/06 08:31:07;;;;;;;70.40;50.78;;;17.10;69.80;;;;;;4951440;28;89671;-53
2022/11/06 08:33:34;;;;;;;71.22;51.05;;;17.10;69.70;;;;;;4943270;28;93804;-52
2022/11/06 08:36:04;;;;;;;70.07;50.45;;;17.20;69.70;;;;;;4948708;28;88801;-52
2022/11/06 08:38:30;;;;;;;70.05;50.75;;;17.20;69.60;;;;;;4951590;28;90510;-53
2022/11/06 08:40:55;;;;;;;70.25;50.83;;;17.20;69.70;;;;;;4955387;28;89926;-55
2022/11/06 08:43:25;;;;;;;69.80;50.22;;;17.20;69.70;;;;;;4952309;28;90784;-53
2022/11/06 08:45:51;;;;;;;70.97;50.28;;;17.10;69.60;;;;;;4956026;28;91448;-55
2022/11/06 08:48:17;;;;;;;71.35;51.17;;;17.20;69.70;;;;;;4942480;28;92397;-55
2022/11/06 08:50:43;;;;;;;71.55;50.60;;;17.20;69.70;;;;;;4948110;28;90068;-53
2022/11/06 08:53:09;;;;;;;71.18;50.88;;;17.20;69.80;;;;;;4946832;28;94693;-53
2022/11/06 08:55:37;;;;;;;69.97;50.75;;;17.10;69.70;;;;;;4952558;28;90082;-55
2022/11/06 08:58:03;;;;;;;69.93;50.65;;;17.20;69.70;;;;;;4942833;28;90948;-54
2022/11/06 09:00:29;;;;;;;71.05;50.75;;;17.20;69.60;;;;;;4947701;28;90194;-53
2022/11/06 09:03:06;;;;;;;70.40;50.95;;;17.20;69.60;;;;;;4955384;28;92069;-53
2022/11/06 09:05:32;;;;;;;69.53;50.50;;;17.20;69.70;;;;;;4953053;28;91611;-56
2022/11/06 09:07:58;;;;;;;70.35;51.17;;;17.20;69.60;;;;;;4942916;28;91410;-54
2022/11/06 09:10:25;;;;;;;69.82;50.25;;;17.20;69.60;;;;;;4962195;28;90265;-53
2022/11/06 09:12:51;;;;;;;71.65;50.65;;;17.20;69.50;;;;;;4956370;28;90245;-54
2022/11/06 09:15:16;;;;;;;70.85;50.78;;;17.20;69.50;;;;;;4957047;28;90250;-53
2022/11/06 09:17:47;;;;;;;71.82;50.60;;;17.20;69.50;;;;;;4952718;28;92368;-52
2022/11/06 09:20:15;;;;;;;70.47;50.70;;;17.20;69.50;;;;;;4957621;28;92602;-54
2022/11/06 09:22:41;;;;;;;69.43;50.15;;;17.20;69.50;;;;;;4954323;28;91164;-53
2022/11/06 09:25:07;;;;;;;70.00;50.78;;;17.20;69.50;;;;;;4959769;28;89772;-54
2022/11/06 09:27:43;;;;;;;71.35;50.65;;;17.20;69.50;;;;;;4956689;28;90337;-54
2022/11/06 09:30:11;;;;;;;70.55;50.63;;;17.20;69.40;;;;;;4961425;28;89949;-56
2022/11/06 09:32:37;;;;;;;71.45;50.78;;;17.20;69.50;;;;;;4955441;28;92171;-54
2022/11/06 09:35:03;;;;;;;70.18;50.72;;;17.20;69.50;;;;;;4952483;28;91415;-55
2022/11/06 09:37:29;;;;;;;71.80;51.17;;;17.20;69.50;;;;;;4954390;28;89974;-48
2022/11/06 09:39:55;;;;;;;69.63;50.70;;;17.20;69.50;;;;;;4948623;28;90767;-55
2022/11/06 09:42:48;;;;;;;69.88;50.78;;;17.20;69.60;;;;;;4941355;28;90705;-54
2022/11/06 09:45:21;;;;;;;79.10;51.00;;;17.20;69.80;;;;;;4943678;28;90496;-57
2022/11/06 09:47:56;;;;;;;73.47;50.60;;;17.10;70.30;;;;;;4943092;28;90071;-53
2022/11/06 09:50:28;;;;;;;73.00;51.00;;;17.20;70.20;;;;;;4953223;28;93362;-56
2022/11/06 09:53:01;;;;;;;72.25;51.20;;;17.10;70.00;;;;;;4945502;28;90368;-56
2022/11/06 09:55:32;;;;;;;71.53;51.03;;;17.10;70.20;;;;;;4951932;28;91229;-57
2022/11/06 09:58:23;;;;;;;74.50;51.67;;;17.10;70.50;;;;;;4953406;28;91028;-55
2022/11/06 10:00:51;;;;;;;74.25;50.97;;;17.10;71.10;;;;;;4950095;28;89820;-57
2022/11/06 10:03:28;;;;;;;75.13;51.25;;;17.10;71.10;;;;;;4950333;28;91921;-56
2022/11/06 10:05:54;;;;;;;73.97;50.90;;;17.10;71.60;;;;;;4943495;28;90143;-57
2022/11/06 10:08:21;;;;;;;72.82;50.88;;;17.20;71.00;;;;;;4944629;28;90162;-56
2022/11/06 10:11:01;;;;;;;74.15;51.00;;;17.20;71.00;;;;;;4949044;28;90615;-55
2022/11/06 10:13:50;;;;;;;76.18;51.38;;;17.20;71.10;;;;;;4946186;28;90666;-55
2022/11/06 10:16:22;;;;;;;72.78;51.08;;;17.20;71.30;;;;;;4953543;28;89752;-56
2022/11/06 10:18:47;;;;;;;;;;;17.20;71.30;;;;;;4954207;28;89959;-56
2022/11/06 10:21:16;;;;;;;75.20;51.17;;;17.30;71.20;;;;;;4948648;28;94554;-57
2022/11/06 10:23:56;;;;;;;72.70;50.88;;;17.30;71.10;;;;;;4941531;28;90960;-57
2022/11/06 10:26:28;;;;;;;71.80;50.53;;;17.30;71.10;;;;;;4949206;28;93733;-58
2022/11/06 10:29:38;;;;;;;76.82;51.10;;;17.30;71.00;;;;;;4944476;28;90387;-57
2022/11/06 10:32:32;;;;;;;72.05;50.63;;;17.30;70.80;;;;;;4932673;28;89964;-55
2022/11/06 10:35:16;;;;;;;73.05;51.05;;;17.30;70.60;;;;;;4950961;28;91232;-56
2022/11/06 10:37:48;;;;;;;71.30;50.67;;;17.30;70.60;;;;;;4952546;28;91063;-54
2022/11/06 10:40:18;;;;;;;73.90;51.13;;;17.30;70.60;;;;;;4943153;28;90376;-55
2022/11/06 10:42:47;;;;;;;71.03;51.10;;;17.30;70.60;;;;;;4946811;28;89893;-57
2022/11/06 10:45:15;;;;;;;77.90;52.17;;;17.30;70.60;;;;;;4929445;28;89993;-54
2022/11/06 10:47:46;;;;;;;74.10;51.65;;;17.30;70.60;;;;;;4916140;28;92526;-51
2022/11/06 10:50:13;;;;;;;;;;;17.30;71.10;;;;;;4947154;28;90949;-52
2022/11/06 10:52:45;;;;;;;77.22;50.90;;;17.40;71.50;;;;;;4942496;28;89765;-54
2022/11/06 10:55:10;;;;;;;;;;;17.40;71.40;;;;;;4951515;28;89760;-51
2022/11/06 10:57:40;;;;;;;70.90;51.05;;;17.40;71.70;;;;;;4941083;28;90262;-58
2022/11/06 11:00:11;;;;;;;71.72;50.83;;;17.40;72.00;;;;;;4940152;28;89938;-58
2022/11/06 11:02:45;;;;;;;72.03;50.90;;;17.50;72.10;;;;;;4942091;28;90036;-53
2022/11/06 11:05:16;;;;;;;72.70;51.05;;;17.40;72.00;;;;;;4938759;28;90713;-56
2022/11/06 11:07:43;;;;;;;;;;;17.40;72.00;;;;;;4948221;28;89782;-57
2022/11/06 11:10:24;;;;;;;70.32;50.63;;;17.40;72.00;;;;;;4942942;28;98222;-56
2022/11/06 11:12:53;;;;;;;74.72;51.20;;;17.50;71.90;;;;;;4959092;28;90466;-57
2022/11/06 11:15:21;;;;;;;73.63;50.80;;;17.50;71.70;;;;;;4949640;28;91208;-56
2022/11/06 11:18:11;;;;;;;72.78;51.00;;;17.50;71.70;;;;;;4948059;28;91074;-50
2022/11/06 11:20:42;;;;;;;72.20;50.75;;;17.50;71.80;;;;;;4941423;28;91062;-54
2022/11/06 11:23:22;;;;;;;72.00;51.55;;;17.40;71.60;;;;;;4945228;28;90062;-54
2022/11/06 11:25:50;;;;;;;76.78;51.28;;;17.50;71.80;;;;;;4951121;28;91117;-58
2022/11/06 11:28:26;;;;;;;70.50;50.78;;;17.50;71.50;;;;;;4937266;28;90118;-56
2022/11/06 11:31:05;;;;;;;71.43;50.72;;;17.50;71.60;;;;;;4937479;28;90603;-54
2022/11/06 11:33:31;;;;;;;72.20;51.05;;;17.50;71.80;;;;;;4941907;28;89086;-55
2022/11/06 11:35:56;;;;;;;72.18;51.03;;;17.50;71.90;;;;;;4938678;28;90311;-55
2022/11/06 11:38:24;;;;;;;71.28;51.05;;;17.50;71.80;;;;;;4948120;28;91530;-55
2022/11/06 11:40:51;;;;;;;74.95;51.15;;;17.40;71.80;;;;;;4940789;28;92196;-54
2022/11/06 11:43:29;;;;;;;75.18;51.08;;;17.50;71.70;;;;;;4942656;28;89995;-51
2022/11/06 11:46:04;;;;;;;72.53;51.50;;;17.40;71.60;;;;;;4940794;28;91117;-53
2022/11/06 11:48:54;;;;;;;74.32;51.15;;;17.40;71.50;;;;;;4946465;28;90773;-50
2022/11/06 11:51:28;;;;;;;72.00;50.75;;;17.40;71.60;;;;;;4948328;28;90239;-50
2022/11/06 11:54:02;;;;;;;71.82;50.92;;;17.40;71.50;;;;;;4939955;28;90466;-57
2022/11/06 11:56:29;;;;;;;71.63;50.92;;;17.40;71.20;;;;;;4943068;28;92620;-52
2022/11/06 11:58:58;;;;;;;73.05;51.10;;;17.40;71.40;;;;;;4937616;28;89659;-56
2022/11/06 12:01:39;;;;;;;71.13;50.60;;;17.40;71.50;;;;;;4933218;28;93506;-48
2022/11/06 12:04:33;;;;;;;71.78;51.00;;;17.40;71.50;;;;;;4942483;28;93463;-52
2022/11/06 12:07:05;;;;;;;72.35;50.75;;;17.40;71.50;;;;;;4937693;28;91677;-54
2022/11/06 12:09:39;;;;;;;72.47;51.22;;;17.40;71.60;;;;;;4951659;28;91995;-56
2022/11/06 12:12:05;;;;;;;70.70;50.78;;;17.40;71.50;;;;;;4941904;28;90098;-57
2022/11/06 12:14:33;;;;;;;71.97;50.85;;;17.40;71.50;;;;;;4939345;28;89983;-59
2022/11/06 12:17:15;;;;;;;72.90;51.42;;;17.40;71.50;;;;;;4943197;28;93837;-58
2022/11/06 12:19:52;;;;;;;71.90;51.28;;;17.40;71.50;;;;;;4943133;28;90668;-56
2022/11/06 12:22:34;;;;;;;71.28;51.08;;;17.40;71.40;;;;;;4936965;28;89950;-57
2022/11/06 12:25:07;;;;;;;71.78;50.40;;;17.40;71.10;;;;;;4947285;28;89781;-58
2022/11/06 12:27:41;;;;;;;71.55;50.95;;;17.40;71.30;;;;;;4930736;28;90155;-60
2022/11/06 12:30:25;;;;;;;72.63;51.15;;;17.50;71.40;;;;;;4938816;28;92947;-53
2022/11/06 12:33:04;;;;;;;72.65;50.95;;;17.40;71.40;;;;;;4935250;28;90803;-50
2022/11/06 12:35:36;;;;;;;72.63;50.75;;;17.50;71.20;;;;;;4945942;28;90277;-53
2022/11/06 12:38:21;;;;;;;71.90;50.70;;;17.40;71.30;;;;;;4947244;28;90125;-58
2022/11/06 12:41:07;;;;;;;71.38;50.65;;;17.40;71.40;;;;;;4938938;28;96675;-51
2022/11/06 12:43:47;;;;;;;72.43;51.25;;;17.40;71.50;;;;;;4931513;28;91023;-58
2022/11/06 12:46:23;;;;;;;71.95;50.72;;;17.40;71.40;;;;;;4946805;28;92395;-53
2022/11/06 12:49:04;;;;;;;70.38;50.78;;;17.40;71.20;;;;;;4945830;28;91359;-54
2022/11/06 12:52:07;;;;;;;72.18;51.17;;;17.40;71.20;;;;;;4940710;28;93180;-57
2022/11/06 12:54:57;;;;;;;71.63;50.95;;;17.40;71.30;;;;;;4938482;28;89955;-53
2022/11/06 12:57:36;;;;;;;72.35;51.00;;;17.40;71.40;;;;;;4937456;28;91249;-52
2022/11/06 13:00:14;;;;;;;72.95;50.92;;;17.40;71.60;;;;;;4943050;28;91101;-47